createdAt,value
2023-09-04T00:00:03.507Z,21.68
2023-09-04T00:02:30.015Z,21.63
2023-09-04T00:04:56.490Z,21.62
2023-09-04T00:07:23.005Z,21.61
2023-09-04T00:09:49.476Z,21.60
2023-09-04T00:12:15.967Z,21.61
2023-09-04T00:14:42.507Z,21.57
2023-09-04T00:17:09.031Z,21.57
2023-09-04T00:19:35.711Z,21.57
2023-09-04T00:22:02.251Z,21.60
2023-09-04T00:24:28.740Z,21.59
2023-09-04T00:26:55.238Z,21.59
2023-09-04T00:29:21.666Z,21.57
2023-09-04T00:31:48.237Z,21.57
2023-09-04T00:34:14.743Z,21.55
2023-09-04T00:36:41.275Z,21.54
2023-09-04T00:39:07.883Z,21.56
2023-09-04T00:41:34.446Z,21.50
2023-09-04T00:44:00.902Z,21.48
2023-09-04T00:46:27.596Z,21.44
2023-09-04T00:48:54.849Z,21.42
2023-09-04T00:51:21.386Z,21.43
2023-09-04T00:53:48.683Z,21.40
2023-09-04T00:56:16.105Z,21.40
2023-09-04T00:58:42.749Z,21.37
2023-09-04T01:01:09.487Z,21.33
2023-09-04T01:03:36.074Z,21.33
2023-09-04T01:06:02.657Z,21.34
2023-09-04T01:08:29.283Z,21.31
2023-09-04T01:11:01.839Z,21.24
2023-09-04T01:13:38.450Z,21.22
2023-09-04T01:16:07.019Z,21.18
2023-09-04T01:18:35.867Z,21.20
2023-09-04T01:21:03.672Z,21.20
2023-09-04T01:23:30.382Z,21.21
2023-09-04T01:26:15.387Z,21.23
2023-09-04T01:29:00.524Z,21.24
2023-09-04T01:31:48.631Z,21.14
2023-09-04T01:34:20.670Z,21.08
2023-09-04T01:36:48.486Z,21.02
2023-09-04T01:39:15.346Z,21.05
2023-09-04T01:41:41.800Z,21.03
2023-09-04T01:44:08.552Z,21.05
2023-09-04T01:46:35.781Z,21.04
2023-09-04T01:49:02.388Z,20.99
2023-09-04T01:51:28.870Z,21.01
2023-09-04T01:53:55.325Z,21.02
2023-09-04T01:56:21.781Z,21.04
2023-09-04T01:58:48.207Z,21.05
2023-09-04T02:01:15.475Z,21.03
2023-09-04T02:03:44.215Z,20.97
2023-09-04T02:06:10.694Z,20.96
2023-09-04T02:08:37.195Z,20.94
2023-09-04T02:11:03.685Z,20.94
2023-09-04T02:13:30.266Z,20.93
2023-09-04T02:15:56.873Z,20.91
2023-09-04T02:18:23.661Z,20.88
2023-09-04T02:20:50.390Z,20.92
2023-09-04T02:23:16.833Z,20.91
2023-09-04T02:25:43.678Z,20.92
2023-09-04T02:28:10.140Z,20.93
2023-09-04T02:30:40.204Z,20.92
2023-09-04T02:33:06.934Z,20.93
2023-09-04T02:35:34.739Z,20.84
2023-09-04T02:38:01.196Z,20.73
2023-09-04T02:40:27.651Z,20.68
2023-09-04T02:42:54.140Z,20.61
2023-09-04T02:45:21.422Z,20.60
2023-09-04T02:47:47.931Z,20.56
2023-09-04T02:50:14.442Z,20.57
2023-09-04T02:52:40.919Z,20.51
2023-09-04T02:55:07.800Z,20.47
2023-09-04T02:57:34.362Z,20.44
2023-09-04T03:00:01.916Z,20.38
2023-09-04T03:02:28.554Z,20.39
2023-09-04T03:04:55.489Z,20.36
2023-09-04T03:07:28.036Z,20.35
2023-09-04T03:09:56.638Z,20.33
2023-09-04T03:12:25.968Z,20.31
2023-09-04T03:14:58.633Z,20.26
2023-09-04T03:17:26.019Z,20.22
2023-09-04T03:19:56.967Z,20.21
2023-09-04T03:22:23.921Z,20.26
2023-09-04T03:24:50.532Z,20.23
2023-09-04T03:27:17.550Z,20.29
2023-09-04T03:29:44.046Z,20.31
2023-09-04T03:32:10.822Z,20.35
2023-09-04T03:34:38.092Z,20.36
2023-09-04T03:37:04.843Z,20.39
2023-09-04T03:39:35.454Z,20.37
2023-09-04T03:42:01.889Z,20.38
2023-09-04T03:44:28.317Z,20.35
2023-09-04T03:46:54.796Z,20.36
2023-09-04T03:49:21.325Z,20.37
2023-09-04T03:51:47.801Z,20.32
2023-09-04T03:54:14.218Z,20.29
2023-09-04T03:56:40.673Z,20.29
2023-09-04T03:59:07.100Z,20.30
2023-09-04T04:01:34.337Z,20.28
2023-09-04T04:04:01.335Z,20.22
2023-09-04T04:06:28.004Z,20.22
2023-09-04T04:08:57.483Z,20.26
2023-09-04T04:11:24.117Z,20.26
2023-09-04T04:13:50.708Z,20.25
2023-09-04T04:16:17.205Z,20.26
2023-09-04T04:18:43.722Z,20.26
2023-09-04T04:21:10.220Z,20.27
2023-09-04T04:23:36.718Z,20.29
2023-09-04T04:26:04.227Z,20.31
2023-09-04T04:28:30.744Z,20.34
2023-09-04T04:30:58.565Z,20.32
2023-09-04T04:33:25.123Z,20.25
2023-09-04T04:35:55.016Z,20.25
2023-09-04T04:38:22.222Z,20.26
2023-09-04T04:40:48.919Z,20.26
2023-09-04T04:43:15.449Z,20.26
2023-09-04T04:45:42.039Z,20.22
2023-09-04T04:48:08.653Z,20.19
2023-09-04T04:50:35.210Z,20.18
2023-09-04T04:53:01.673Z,20.11
2023-09-04T04:55:28.147Z,20.09
2023-09-04T04:57:54.793Z,20.07
2023-09-04T05:00:21.265Z,20.07
2023-09-04T05:02:47.737Z,20.03
2023-09-04T05:05:14.187Z,19.96
2023-09-04T05:07:42.822Z,19.95
2023-09-04T05:10:10.304Z,19.88
2023-09-04T05:12:37.061Z,19.83
2023-09-04T05:15:05.114Z,19.87
2023-09-04T05:17:31.586Z,19.81
2023-09-04T05:19:58.121Z,19.78
2023-09-04T05:22:24.615Z,19.81
2023-09-04T05:24:51.034Z,19.78
2023-09-04T05:27:17.510Z,19.83
2023-09-04T05:29:43.948Z,19.89
2023-09-04T05:32:10.429Z,19.96
2023-09-04T05:34:40.912Z,20.05
2023-09-04T05:37:08.718Z,20.13
2023-09-04T05:39:35.188Z,20.19
2023-09-04T05:42:01.653Z,20.27
2023-09-04T05:44:28.171Z,20.37
2023-09-04T05:46:54.663Z,20.45
2023-09-04T05:49:21.159Z,20.52
2023-09-04T05:51:47.629Z,20.59
2023-09-04T05:54:14.165Z,20.65
2023-09-04T05:56:40.642Z,20.72
2023-09-04T05:59:07.118Z,20.79
2023-09-04T06:01:33.582Z,20.87
2023-09-04T06:04:00.125Z,20.95
2023-09-04T06:06:26.664Z,21.03
2023-09-04T06:08:53.159Z,21.11
2023-09-04T06:11:19.602Z,21.20
2023-09-04T06:13:46.099Z,21.27
2023-09-04T06:16:13.992Z,21.36
2023-09-04T06:18:40.483Z,21.44
2023-09-04T06:21:06.981Z,21.53
2023-09-04T06:23:33.523Z,21.59
2023-09-04T06:26:03.701Z,21.65
2023-09-04T06:28:30.163Z,21.72
2023-09-04T06:30:57.018Z,21.78
2023-09-04T06:33:25.386Z,21.84
2023-09-04T06:35:51.974Z,21.89
2023-09-04T06:38:18.410Z,21.96
2023-09-04T06:40:44.860Z,22.01
2023-09-04T06:43:11.349Z,22.06
2023-09-04T06:45:38.942Z,22.10
2023-09-04T06:48:08.512Z,22.15
2023-09-04T06:50:35.020Z,22.18
2023-09-04T06:53:01.521Z,22.21
2023-09-04T06:55:27.987Z,22.24
2023-09-04T06:57:54.446Z,22.28
2023-09-04T07:00:20.994Z,22.33
2023-09-04T07:02:47.983Z,22.37
2023-09-04T07:05:14.520Z,22.45
2023-09-04T07:07:40.968Z,22.50
2023-09-04T07:10:07.780Z,22.55
2023-09-04T07:12:35.589Z,22.62
2023-09-04T07:15:02.076Z,22.66
2023-09-04T07:17:28.678Z,22.72
2023-09-04T07:19:55.260Z,22.77
2023-09-04T07:22:21.727Z,22.82
2023-09-04T07:24:48.225Z,22.87
2023-09-04T07:27:14.745Z,22.93
2023-09-04T07:29:41.197Z,22.98
2023-09-04T07:32:07.871Z,23.01
2023-09-04T07:34:36.496Z,23.02
2023-09-04T07:37:03.990Z,23.08
2023-09-04T07:39:30.546Z,23.15
2023-09-04T07:41:59.891Z,23.17
2023-09-04T07:44:26.358Z,23.23
2023-09-04T07:46:54.111Z,23.30
2023-09-04T07:49:20.821Z,23.37
2023-09-04T07:51:47.681Z,23.45
2023-09-04T07:54:14.143Z,23.56
2023-09-04T07:56:42.627Z,23.64
2023-09-04T07:59:09.796Z,23.74
2023-09-04T08:01:36.326Z,23.84
2023-09-04T08:04:04.116Z,23.93
2023-09-04T08:06:30.826Z,24.05
2023-09-04T08:08:57.332Z,24.13
2023-09-04T08:11:23.809Z,24.22
2023-09-04T08:13:50.364Z,24.33
2023-09-04T08:16:16.989Z,24.39
2023-09-04T08:18:43.483Z,24.47
2023-09-04T08:21:10.041Z,24.54
2023-09-04T08:23:36.511Z,24.59
2023-09-04T08:26:04.381Z,24.64
2023-09-04T08:28:31.014Z,24.71
2023-09-04T08:30:58.085Z,24.75
2023-09-04T08:33:25.168Z,24.86
2023-09-04T08:35:52.060Z,24.96
2023-09-04T08:38:18.637Z,25.03
2023-09-04T08:40:45.262Z,25.08
2023-09-04T08:43:11.893Z,25.10
2023-09-04T08:45:41.163Z,25.14
2023-09-04T08:48:09.421Z,25.18
2023-09-04T08:50:38.988Z,25.21
2023-09-04T08:53:05.527Z,25.25
2023-09-04T08:55:35.169Z,25.27
2023-09-04T08:58:02.370Z,25.28
2023-09-04T09:00:29.913Z,25.32
2023-09-04T09:03:01.831Z,25.34
2023-09-04T09:05:29.830Z,25.40
2023-09-04T09:07:56.386Z,25.39
2023-09-04T09:10:23.681Z,25.45
2023-09-04T09:12:50.267Z,25.45
2023-09-04T09:15:18.615Z,25.49
2023-09-04T09:17:54.344Z,25.52
2023-09-04T09:20:30.245Z,25.58
2023-09-04T09:22:57.064Z,25.61
2023-09-04T09:25:23.751Z,25.64
2023-09-04T09:27:50.297Z,25.71
2023-09-04T09:30:16.796Z,25.77
2023-09-04T09:32:43.650Z,25.83
2023-09-04T09:35:10.635Z,25.90
2023-09-04T09:37:37.257Z,25.96
2023-09-04T09:40:06.430Z,26.03
2023-09-04T09:42:32.912Z,26.08
2023-09-04T09:44:59.360Z,26.11
2023-09-04T09:47:27.186Z,26.19
2023-09-04T09:49:55.750Z,26.24
2023-09-04T09:52:22.228Z,26.29
2023-09-04T09:54:48.714Z,26.38
2023-09-04T09:57:16.754Z,26.45
2023-09-04T09:59:44.641Z,26.50
2023-09-04T10:02:16.422Z,26.55
2023-09-04T10:04:43.016Z,26.62
2023-09-04T10:07:10.776Z,26.67
2023-09-04T10:09:43.410Z,26.69
2023-09-04T10:12:16.346Z,26.76
2023-09-04T10:14:43.744Z,26.75
2023-09-04T10:17:15.695Z,26.79
2023-09-04T10:19:43.478Z,26.77
2023-09-04T10:22:13.132Z,26.76
2023-09-04T10:24:42.811Z,26.77
2023-09-04T10:27:10.397Z,26.78
2023-09-04T10:29:46.257Z,26.80
2023-09-04T10:32:13.670Z,26.80
2023-09-04T10:34:41.377Z,26.73
2023-09-04T10:37:12.116Z,26.67
2023-09-04T10:39:39.774Z,26.64
2023-09-04T10:42:07.026Z,26.65
2023-09-04T10:44:50.812Z,26.63
2023-09-04T10:47:17.581Z,26.60
2023-09-04T10:49:44.471Z,26.61
2023-09-04T10:52:11.318Z,26.60
2023-09-04T10:54:38.310Z,26.56
2023-09-04T10:57:09.165Z,26.54
2023-09-04T10:59:54.046Z,26.51
2023-09-04T11:02:34.061Z,26.50
2023-09-04T11:05:04.210Z,26.46
2023-09-04T11:07:36.187Z,26.43
2023-09-04T11:10:04.731Z,26.40
2023-09-04T11:12:36.316Z,26.35
2023-09-04T11:15:10.449Z,26.30
2023-09-04T11:17:38.873Z,26.25
2023-09-04T11:20:05.634Z,26.19
2023-09-04T11:22:33.691Z,26.12
2023-09-04T11:25:00.253Z,26.08
2023-09-04T11:27:27.180Z,26.02
2023-09-04T11:29:53.731Z,25.99
2023-09-04T11:32:20.558Z,25.95
2023-09-04T11:34:48.380Z,25.87
2023-09-04T11:37:14.861Z,25.83
2023-09-04T11:40:01.020Z,25.79
2023-09-04T11:42:29.801Z,25.75
2023-09-04T11:44:56.295Z,25.73
2023-09-04T11:47:23.448Z,25.72
2023-09-04T11:49:50.475Z,25.69
2023-09-04T11:52:20.178Z,25.69
2023-09-04T11:54:46.708Z,25.66
2023-09-04T11:57:13.580Z,25.64
2023-09-04T11:59:41.469Z,25.62
2023-09-04T12:02:08.941Z,25.60
2023-09-04T12:04:35.824Z,25.58
2023-09-04T12:07:03.110Z,25.57
2023-09-04T12:09:29.954Z,25.55
2023-09-04T12:11:57.389Z,25.54
2023-09-04T12:14:23.875Z,25.53
2023-09-04T12:16:50.420Z,25.53
2023-09-04T12:19:17.998Z,25.52
2023-09-04T12:21:44.995Z,25.51
2023-09-04T12:24:12.405Z,25.49
2023-09-04T12:26:39.042Z,25.48
2023-09-04T12:29:05.515Z,25.47
2023-09-04T12:31:32.187Z,25.46
2023-09-04T12:33:58.827Z,25.45
2023-09-04T12:36:25.285Z,25.45
2023-09-04T12:38:51.774Z,25.44
2023-09-04T12:41:18.225Z,25.46
2023-09-04T12:43:45.515Z,25.46
2023-09-04T12:46:13.113Z,25.45
2023-09-04T12:48:41.653Z,25.46
2023-09-04T12:51:08.721Z,25.47
2023-09-04T12:53:35.428Z,25.47
2023-09-04T12:56:04.407Z,25.45
2023-09-04T12:58:31.186Z,25.45
2023-09-04T13:00:57.822Z,25.43
2023-09-04T13:03:25.228Z,25.46
2023-09-04T13:05:53.322Z,25.44
2023-09-04T13:08:19.763Z,25.44
2023-09-04T13:10:46.235Z,25.45
2023-09-04T13:13:12.725Z,25.45
2023-09-04T13:15:39.513Z,25.45
2023-09-04T13:18:06.100Z,25.47
2023-09-04T13:20:32.671Z,25.46
2023-09-04T13:22:59.138Z,25.48
2023-09-04T13:25:26.095Z,25.48
2023-09-04T13:27:52.547Z,25.50
2023-09-04T13:30:19.897Z,25.51
2023-09-04T13:32:46.448Z,25.52
2023-09-04T13:35:12.929Z,25.52
2023-09-04T13:37:39.597Z,25.54
2023-09-04T13:40:07.200Z,25.54
2023-09-04T13:42:33.687Z,25.54
2023-09-04T13:45:01.138Z,25.56
2023-09-04T13:47:28.030Z,25.56
2023-09-04T13:49:55.419Z,25.56
2023-09-04T13:52:25.344Z,25.56
2023-09-04T13:54:53.164Z,25.55
2023-09-04T13:57:19.940Z,25.56
2023-09-04T13:59:46.604Z,25.60
2023-09-04T14:02:13.093Z,25.61
2023-09-04T14:04:39.667Z,25.61
2023-09-04T14:07:06.127Z,25.61
2023-09-04T14:12:00.160Z,25.63
2023-09-04T14:14:26.826Z,25.66
2023-09-04T14:16:53.332Z,25.66
2023-09-04T14:19:19.957Z,25.67
2023-09-04T14:21:46.454Z,25.67
2023-09-04T14:24:15.071Z,25.69
2023-09-04T14:26:41.593Z,25.72
2023-09-04T14:29:08.178Z,25.71
2023-09-04T14:31:34.675Z,25.72
2023-09-04T14:34:04.549Z,25.71
2023-09-04T14:36:31.214Z,25.74
2023-09-04T14:38:59.975Z,25.73
2023-09-04T14:41:33.378Z,25.74
2023-09-04T14:44:00.112Z,25.73
2023-09-04T14:46:26.797Z,25.75
2023-09-04T14:48:54.178Z,25.74
2023-09-04T14:51:21.237Z,25.74
2023-09-04T14:53:50.623Z,25.74
2023-09-04T14:56:17.194Z,25.74
2023-09-04T14:58:43.709Z,25.75
2023-09-04T15:01:19.710Z,25.77
2023-09-04T15:03:47.255Z,25.76
2023-09-04T15:06:14.223Z,25.77
2023-09-04T15:08:40.834Z,25.76
2023-09-04T15:11:14.528Z,25.78
2023-09-04T15:13:43.822Z,25.76
2023-09-04T15:16:10.796Z,25.78
2023-09-04T15:18:37.411Z,25.79
2023-09-04T15:21:05.866Z,25.79
2023-09-04T15:23:32.698Z,25.80
2023-09-04T15:25:59.227Z,25.81
2023-09-04T15:28:26.027Z,25.81
2023-09-04T15:30:52.778Z,25.82
2023-09-04T15:33:19.293Z,25.82
2023-09-04T15:35:48.382Z,25.82
2023-09-04T15:38:15.398Z,25.83
2023-09-04T15:40:41.955Z,25.83
2023-09-04T15:43:08.487Z,25.83
2023-09-04T15:45:39.388Z,25.85
2023-09-04T15:48:06.150Z,25.84
2023-09-04T15:50:32.639Z,25.83
2023-09-04T15:53:00.446Z,25.83
2023-09-04T15:55:26.872Z,25.84
2023-09-04T15:57:53.301Z,25.85
2023-09-04T16:00:19.740Z,25.83
2023-09-04T16:02:46.239Z,25.84
2023-09-04T16:05:12.739Z,25.84
2023-09-04T16:07:39.250Z,25.84
2023-09-04T16:10:05.991Z,25.84
2023-09-04T16:12:32.443Z,25.81
2023-09-04T16:14:58.945Z,25.83
2023-09-04T16:17:25.442Z,25.85
2023-09-04T16:19:52.013Z,25.84
2023-09-04T16:22:18.535Z,25.84
2023-09-04T16:24:46.232Z,25.84
2023-09-04T16:27:12.979Z,25.83
2023-09-04T16:29:39.482Z,25.83
2023-09-04T16:32:06.554Z,25.83
2023-09-04T16:34:33.125Z,25.84
2023-09-04T16:36:59.599Z,25.84
2023-09-04T16:39:26.049Z,25.84
2023-09-04T16:41:52.495Z,25.85
2023-09-04T16:44:18.935Z,25.84
2023-09-04T16:46:46.391Z,25.83
2023-09-04T16:49:12.980Z,25.83
2023-09-04T16:51:50.625Z,25.82
2023-09-04T16:54:22.569Z,25.80
2023-09-04T16:56:49.006Z,25.79
2023-09-04T16:59:15.477Z,25.78
2023-09-04T17:01:42.000Z,25.77
2023-09-04T17:04:09.392Z,25.78
2023-09-04T17:06:35.967Z,25.76
2023-09-04T17:09:03.187Z,25.75
2023-09-04T17:11:29.792Z,25.74
2023-09-04T17:13:56.241Z,25.74
2023-09-04T17:16:22.815Z,25.71
2023-09-04T17:18:49.559Z,25.69
2023-09-04T17:21:16.096Z,25.67
2023-09-04T17:23:42.555Z,25.65
2023-09-04T17:26:09.080Z,25.65
2023-09-04T17:28:35.503Z,25.63
2023-09-04T17:31:07.281Z,25.63
2023-09-04T17:33:34.078Z,25.63
2023-09-04T17:36:03.731Z,25.61
2023-09-04T17:38:40.823Z,25.60
2023-09-04T17:41:08.190Z,25.55
2023-09-04T17:43:34.902Z,25.54
2023-09-04T17:46:01.460Z,25.53
2023-09-04T17:48:28.151Z,25.52
2023-09-04T17:50:54.708Z,25.48
2023-09-04T17:53:21.439Z,25.48
2023-09-04T17:55:47.983Z,25.47
2023-09-04T17:58:14.846Z,25.46
2023-09-04T18:00:41.603Z,25.45
2023-09-04T18:03:08.411Z,25.44
2023-09-04T18:05:35.671Z,25.42
2023-09-04T18:08:02.172Z,25.41
2023-09-04T18:10:28.699Z,25.38
2023-09-04T18:12:55.185Z,25.34
2023-09-04T18:15:24.403Z,25.34
2023-09-04T18:17:51.161Z,25.33
2023-09-04T18:20:17.922Z,25.31
2023-09-04T18:22:47.442Z,25.30
2023-09-04T18:25:16.203Z,25.27
2023-09-04T18:27:46.073Z,25.24
2023-09-04T18:30:15.031Z,25.23
2023-09-04T18:32:41.617Z,25.21
2023-09-04T18:35:08.441Z,25.20
2023-09-04T18:37:34.990Z,25.18
2023-09-04T18:40:01.506Z,25.17
2023-09-04T18:42:28.068Z,25.16
2023-09-04T18:44:54.668Z,25.15
2023-09-04T18:47:21.170Z,25.14
2023-09-04T18:49:52.180Z,25.12
2023-09-04T18:52:20.905Z,25.10
2023-09-04T18:54:48.276Z,25.09
2023-09-04T18:57:15.578Z,25.09
2023-09-04T18:59:42.199Z,25.08
2023-09-04T19:02:08.960Z,25.09
2023-09-04T19:04:38.770Z,25.07
2023-09-04T19:07:05.255Z,25.06
2023-09-04T19:09:32.629Z,25.05
2023-09-04T19:11:59.158Z,25.04
2023-09-04T19:14:25.657Z,25.04
2023-09-04T19:16:52.118Z,25.04
2023-09-04T19:19:18.706Z,25.03
2023-09-04T19:21:45.676Z,25.02
2023-09-04T19:24:12.281Z,25.00
2023-09-04T19:26:38.913Z,24.99
2023-09-04T19:29:05.434Z,24.96
2023-09-04T19:31:32.118Z,24.92
2023-09-04T19:33:58.653Z,24.88
2023-09-04T19:36:27.595Z,24.82
2023-09-04T19:38:54.658Z,24.78
2023-09-04T19:41:21.558Z,24.70
2023-09-04T19:43:48.073Z,24.68
2023-09-04T19:46:14.591Z,24.63
2023-09-04T19:48:41.122Z,24.59
2023-09-04T19:51:07.603Z,24.60
2023-09-04T19:53:34.110Z,24.57
2023-09-04T19:56:00.612Z,24.53
2023-09-04T19:58:27.466Z,24.52
2023-09-04T20:00:54.172Z,24.50
2023-09-04T20:03:20.707Z,24.43
2023-09-04T20:05:47.353Z,24.41
2023-09-04T20:08:13.809Z,24.37
2023-09-04T20:10:41.057Z,24.36
2023-09-04T20:13:07.581Z,24.31
2023-09-04T20:15:34.081Z,24.29
2023-09-04T20:18:01.783Z,24.25
2023-09-04T20:20:28.464Z,24.19
2023-09-04T20:22:55.350Z,24.15
2023-09-04T20:25:21.877Z,24.10
2023-09-04T20:27:48.420Z,24.06
2023-09-04T20:30:14.931Z,24.02
2023-09-04T20:32:41.701Z,24.02
2023-09-04T20:35:08.674Z,24.01
2023-09-04T20:37:36.576Z,24.02
2023-09-04T20:40:03.622Z,24.00
2023-09-04T20:42:31.277Z,23.96
2023-09-04T20:44:57.900Z,23.96
2023-09-04T20:47:24.398Z,23.95
2023-09-04T20:49:50.884Z,23.90
2023-09-04T20:52:17.397Z,23.93
2023-09-04T20:54:43.927Z,23.88
2023-09-04T20:57:10.462Z,23.86
2023-09-04T20:59:36.919Z,23.84
2023-09-04T21:02:03.455Z,23.81
2023-09-04T21:04:29.976Z,23.79
2023-09-04T21:06:56.422Z,23.78
2023-09-04T21:09:22.810Z,23.77
2023-09-04T21:12:07.808Z,23.74
2023-09-04T21:14:53.030Z,23.72
2023-09-04T21:17:38.159Z,23.72
2023-09-04T21:20:23.263Z,23.69
2023-09-04T21:23:08.490Z,23.71
2023-09-04T21:25:53.666Z,23.70
2023-09-04T21:28:38.904Z,23.65
2023-09-04T21:31:24.255Z,23.63
2023-09-04T21:34:09.382Z,23.61
2023-09-04T21:36:54.557Z,23.57
2023-09-04T21:39:39.629Z,23.55
2023-09-04T21:42:24.715Z,23.52
2023-09-04T21:45:10.039Z,23.52
2023-09-04T21:47:55.095Z,23.51
2023-09-04T21:50:40.311Z,23.46
2023-09-04T21:53:25.852Z,23.44
2023-09-04T21:58:56.128Z,23.41
2023-09-04T22:01:41.310Z,23.41
2023-09-04T22:04:26.354Z,23.39
2023-09-04T22:07:11.451Z,23.38
2023-09-04T22:09:56.572Z,23.36
2023-09-04T22:12:41.824Z,23.34
2023-09-04T22:15:27.045Z,23.31
2023-09-04T22:18:12.029Z,23.29
2023-09-04T22:20:57.263Z,23.25
2023-09-04T22:23:42.566Z,23.22
2023-09-04T22:26:27.736Z,23.20
2023-09-04T22:29:13.040Z,23.18
2023-09-04T22:31:58.427Z,23.19
2023-09-04T22:34:43.601Z,23.18
2023-09-04T22:37:28.912Z,23.14
2023-09-04T22:40:13.727Z,23.10
2023-09-04T22:42:58.944Z,23.08
2023-09-04T22:45:44.118Z,23.08
2023-09-04T22:48:29.513Z,23.07
2023-09-04T22:51:14.653Z,23.06
2023-09-04T22:53:59.755Z,23.03
2023-09-04T22:56:46.692Z,23.02
2023-09-04T22:59:31.904Z,23.00
2023-09-04T23:02:16.751Z,22.98
2023-09-04T23:05:01.961Z,22.93
2023-09-04T23:07:47.150Z,22.90
2023-09-04T23:10:32.436Z,22.86
2023-09-04T23:13:17.656Z,22.81
2023-09-04T23:16:02.928Z,22.80
2023-09-04T23:18:48.079Z,22.76
2023-09-04T23:21:14.462Z,22.75
2023-09-04T23:23:49.793Z,22.72
2023-09-04T23:26:36.901Z,22.70
2023-09-04T23:29:04.598Z,22.68
2023-09-04T23:31:31.121Z,22.64
2023-09-04T23:34:00.971Z,22.62
2023-09-04T23:36:33.872Z,22.58
2023-09-04T23:39:10.461Z,22.59
2023-09-04T23:41:55.650Z,22.59
2023-09-04T23:44:40.611Z,22.59
2023-09-04T23:47:07.137Z,22.58
2023-09-04T23:49:34.317Z,22.57
2023-09-04T23:52:00.907Z,22.57
2023-09-04T23:54:30.056Z,22.57
2023-09-04T23:56:57.317Z,22.56
2023-09-04T23:59:24.519Z,22.54
